Time;durP1;ratioP1;P1;durP2;ratioP2;P2;SDS_P1;SDS_P2;PMS_P1;PMS_P2;Temp;Humidity;BMP_temperature;BMP_pressure;BME280_temperature;BME280_humidity;BME280_pressure;Samples;Min_cycle;Max_cycle;Signal;HPM_P1;HPM_P2
2023/07/25 00:00:32;;;;;;;7.77;4.53;;;;;;;;;;5042082;28;21445;-82
2023/07/25 00:02:58;;;;;;;7.83;4.53;;;;;;;;;;5041904;28;20453;-82
2023/07/25 00:05:26;;;;;;;7.77;4.70;;;;;;;;;;5042694;28;20424;-82
2023/07/25 00:07:53;;;;;;;9.50;6.20;;;;;;;;;;5042211;28;20559;-82
2023/07/25 00:10:19;;;;;;;8.07;5.10;;;;;;;;;;5041600;28;20478;-82
2023/07/25 00:12:46;;;;;;;9.50;6.00;;;;;;;;;;5043423;28;20490;-82
2023/07/25 00:15:14;;;;;;;15.43;5.20;;;;;;;;;;5041980;28;20475;-82
2023/07/25 00:17:41;;;;;;;8.07;5.07;;;;;;;;;;5042439;28;20784;-82
2023/07/25 00:20:07;;;;;;;5.83;5.33;;;;;;;;;;5044131;28;20467;-82
2023/07/25 00:22:35;;;;;;;14.03;6.57;;;;;;;;;;5041676;28;21006;-82
2023/07/25 00:25:01;;;;;;;8.97;3.80;;;;;;;;;;5041371;28;20467;-81
2023/07/25 00:27:28;;;;;;;10.83;5.50;;;;;;;;;;5042081;28;20462;-82
2023/07/25 00:29:54;;;;;;;9.70;5.57;;;;;;;;;;5040885;28;20460;-82
2023/07/25 00:32:22;;;;;;;6.90;4.53;;;;;;;;;;5038912;28;20461;-82
2023/07/25 00:34:50;;;;;;;6.90;4.77;;;;;;;;;;5040869;28;20534;-82
2023/07/25 00:37:17;;;;;;;11.73;4.60;;;;;;;;;;5040723;28;20446;-82
2023/07/25 00:39:43;;;;;;;9.50;5.63;;;;;;;;;;5041103;28;20487;-82
2023/07/25 00:42:09;;;;;;;11.57;5.30;;;;;;;;;;5041625;28;20478;-82
2023/07/25 00:44:36;;;;;;;13.17;5.93;;;;;;;;;;5039515;28;20426;-82
2023/07/25 00:47:02;;;;;;;8.90;4.70;;;;;;;;;;5042259;28;20486;-82
2023/07/25 00:49:30;;;;;;;8.77;4.77;;;;;;;;;;5041166;28;20497;-82
2023/07/25 00:51:58;;;;;;;10.53;4.90;;;;;;;;;;5040140;28;20455;-82
2023/07/25 00:54:25;;;;;;;6.70;5.50;;;;;;;;;;5039718;28;21019;-82
2023/07/25 00:56:51;;;;;;;10.40;5.23;;;;;;;;;;5041504;28;20489;-82
2023/07/25 00:59:18;;;;;;;6.80;6.10;;;;;;;;;;5041845;28;21033;-82
2023/07/25 01:01:44;;;;;;;7.83;5.30;;;;;;;;;;5041904;28;20460;-82
2023/07/25 01:04:10;;;;;;;8.77;4.77;;;;;;;;;;5042439;28;20963;-82
2023/07/25 01:06:39;;;;;;;9.33;5.30;;;;;;;;;;5040010;28;20472;-82
2023/07/25 01:09:05;;;;;;;8.27;4.73;;;;;;;;;;5042371;28;20510;-82
2023/07/25 01:11:31;;;;;;;7.33;4.87;;;;;;;;;;5041703;28;20450;-82
2023/07/25 01:13:58;;;;;;;8.03;5.20;;;;;;;;;;5041868;28;20435;-82
2023/07/25 01:16:25;;;;;;;16.07;5.30;;;;;;;;;;5041136;28;20857;-82
2023/07/25 01:18:51;;;;;;;9.00;4.80;;;;;;;;;;5041667;28;20481;-82
2023/07/25 01:21:18;;;;;;;12.93;6.00;;;;;;;;;;5041967;28;20458;-82
2023/07/25 01:23:46;;;;;;;12.20;5.23;;;;;;;;;;5040343;28;20960;-82
2023/07/25 01:26:16;;;;;;;11.10;6.33;;;;;;;;;;5040377;28;20465;-82
2023/07/25 01:28:43;;;;;;;10.00;6.20;;;;;;;;;;5040642;28;20480;-82
2023/07/25 01:31:09;;;;;;;10.87;5.80;;;;;;;;;;5039608;28;20558;-82
2023/07/25 01:33:35;;;;;;;13.23;5.97;;;;;;;;;;5040561;28;20441;-82
2023/07/25 01:36:02;;;;;;;8.30;6.10;;;;;;;;;;5040626;28;20483;-82
2023/07/25 01:38:28;;;;;;;7.13;5.27;;;;;;;;;;5041360;28;20975;-83
2023/07/25 01:40:54;;;;;;;11.87;6.20;;;;;;;;;;5041103;28;20485;-82
2023/07/25 01:43:22;;;;;;;11.33;6.63;;;;;;;;;;5040415;28;20431;-80
2023/07/25 01:45:49;;;;;;;8.57;5.97;;;;;;;;;;5042092;28;20443;-80
2023/07/25 01:48:16;;;;;;;9.90;5.67;;;;;;;;;;5043755;28;20492;-80
2023/07/25 01:50:44;;;;;;;13.77;7.33;;;;;;;;;;5044335;28;20430;-79
2023/07/25 01:53:10;;;;;;;10.23;6.43;;;;;;;;;;5046208;28;20463;-79
2023/07/25 01:55:37;;;;;;;8.80;5.73;;;;;;;;;;5044083;28;20475;-79
2023/07/25 01:58:05;;;;;;;8.50;5.93;;;;;;;;;;5045357;28;20476;-79
2023/07/25 02:00:33;;;;;;;12.30;6.60;;;;;;;;;;5044889;28;20438;-79
2023/07/25 02:03:00;;;;;;;18.13;6.80;;;;;;;;;;5044330;28;20526;-80
2023/07/25 02:05:26;;;;;;;12.93;6.17;;;;;;;;;;5044039;28;20455;-79
2023/07/25 02:07:52;;;;;;;16.07;7.50;;;;;;;;;;5044946;28;21023;-79
2023/07/25 02:10:19;;;;;;;12.63;7.10;;;;;;;;;;5042911;28;20442;-80
2023/07/25 02:12:45;;;;;;;12.33;7.20;;;;;;;;;;5043532;28;20434;-79
2023/07/25 02:15:12;;;;;;;12.83;7.03;;;;;;;;;;5044301;28;20981;-79
2023/07/25 02:17:39;;;;;;;14.30;7.50;;;;;;;;;;5044739;28;20442;-79
2023/07/25 02:20:07;;;;;;;11.90;7.77;;;;;;;;;;5045233;28;20453;-79
2023/07/25 02:22:33;;;;;;;14.17;6.30;;;;;;;;;;5043083;28;21411;-79
2023/07/25 02:24:59;;;;;;;15.83;7.20;;;;;;;;;;5043838;28;20445;-79
2023/07/25 02:27:25;;;;;;;12.53;7.20;;;;;;;;;;5043684;28;20442;-79
2023/07/25 02:29:52;;;;;;;11.17;7.00;;;;;;;;;;5045082;28;21012;-80
2023/07/25 02:32:18;;;;;;;11.80;7.97;;;;;;;;;;5043805;28;20472;-79
2023/07/25 02:34:46;;;;;;;17.30;7.37;;;;;;;;;;5045820;28;20418;-82
2023/07/25 02:37:12;;;;;;;9.63;6.60;;;;;;;;;;5044113;28;20448;-82
2023/07/25 02:39:38;;;;;;;8.50;6.50;;;;;;;;;;5043993;28;20459;-82
2023/07/25 02:42:05;;;;;;;11.00;7.50;;;;;;;;;;5043228;28;20488;-82
2023/07/25 02:44:32;;;;;;;20.37;6.93;;;;;;;;;;5042131;28;20419;-82
2023/07/25 02:46:58;;;;;;;11.90;7.03;;;;;;;;;;5044562;28;20442;-82
2023/07/25 02:49:24;;;;;;;12.20;7.77;;;;;;;;;;5043902;28;20477;-82
2023/07/25 02:51:52;;;;;;;8.87;6.87;;;;;;;;;;5044536;28;20507;-82
2023/07/25 02:54:19;;;;;;;14.17;6.37;;;;;;;;;;5043951;28;20460;-82
2023/07/25 02:56:45;;;;;;;9.00;7.00;;;;;;;;;;5042237;28;20455;-82
2023/07/25 02:59:13;;;;;;;16.47;7.30;;;;;;;;;;5042003;28;20484;-82
2023/07/25 03:01:39;;;;;;;18.00;6.43;;;;;;;;;;5042404;28;20484;-82
2023/07/25 03:04:05;;;;;;;12.30;7.30;;;;;;;;;;5044066;28;20482;-82
2023/07/25 03:06:32;;;;;;;11.93;7.03;;;;;;;;;;5043825;28;20849;-82
2023/07/25 03:09:00;;;;;;;12.87;7.53;;;;;;;;;;5043684;28;20473;-82
2023/07/25 03:11:26;;;;;;;8.43;6.77;;;;;;;;;;5041176;28;20447;-82
2023/07/25 03:13:52;;;;;;;13.27;6.00;;;;;;;;;;5041674;28;21005;-82
2023/07/25 03:16:19;;;;;;;8.17;7.07;;;;;;;;;;5044495;28;21029;-82
2023/07/25 03:18:45;;;;;;;10.73;7.07;;;;;;;;;;5043433;28;20476;-82
2023/07/25 03:21:11;;;;;;;9.37;6.97;;;;;;;;;;5044187;28;20451;-82
2023/07/25 03:23:38;;;;;;;13.63;7.30;;;;;;;;;;5042868;28;20419;-82
2023/07/25 03:26:05;;;;;;;14.97;8.07;;;;;;;;;;5041256;28;20488;-82
2023/07/25 03:28:32;;;;;;;10.43;6.80;;;;;;;;;;5041196;28;20506;-82
2023/07/25 03:30:58;;;;;;;9.50;7.10;;;;;;;;;;5042508;28;20526;-82
2023/07/25 03:33:24;;;;;;;9.60;6.50;;;;;;;;;;5041576;28;20855;-82
2023/07/25 03:35:51;;;;;;;13.27;7.70;;;;;;;;;;5042808;28;20438;-82
2023/07/25 03:38:17;;;;;;;15.07;7.77;;;;;;;;;;5042555;28;20455;-79
2023/07/25 03:40:43;;;;;;;11.57;7.23;;;;;;;;;;5042600;28;20468;-80
2023/07/25 03:43:12;;;;;;;16.70;9.10;;;;;;;;;;5042395;28;20520;-79
2023/07/25 03:45:38;;;;;;;9.40;6.93;;;;;;;;;;5042035;28;20461;-80
2023/07/25 03:48:05;;;;;;;13.50;6.53;;;;;;;;;;5042879;28;20446;-79
2023/07/25 03:50:31;;;;;;;13.53;6.70;;;;;;;;;;5041967;28;20454;-80
2023/07/25 03:52:58;;;;;;;12.50;7.33;;;;;;;;;;5043846;28;20435;-80
2023/07/25 03:55:25;;;;;;;10.53;7.30;;;;;;;;;;5043526;28;22478;-80
2023/07/25 03:57:51;;;;;;;8.30;6.87;;;;;;;;;;5043236;28;20450;-79
2023/07/25 04:00:20;;;;;;;13.90;7.13;;;;;;;;;;5040527;28;20475;-79
2023/07/25 04:02:46;;;;;;;11.00;7.53;;;;;;;;;;5041370;28;20419;-79
2023/07/25 04:05:13;;;;;;;13.50;8.60;;;;;;;;;;5041959;28;20432;-79
2023/07/25 04:07:39;;;;;;;12.50;7.90;;;;;;;;;;5042368;28;20490;-80
2023/07/25 04:10:06;;;;;;;12.83;7.13;;;;;;;;;;5040718;28;20499;-80
2023/07/25 04:12:33;;;;;;;24.20;7.80;;;;;;;;;;5042355;28;20475;-80
2023/07/25 04:14:59;;;;;;;8.10;6.63;;;;;;;;;;5042155;28;20983;-80
2023/07/25 04:17:27;;;;;;;13.60;7.70;;;;;;;;;;5041978;28;20482;-80
2023/07/25 04:19:53;;;;;;;18.63;8.33;;;;;;;;;;5042551;28;20438;-80
2023/07/25 04:22:20;;;;;;;8.60;6.40;;;;;;;;;;5040979;28;20495;-79
2023/07/25 04:24:46;;;;;;;13.10;7.33;;;;;;;;;;5042635;28;20966;-79
2023/07/25 04:27:12;;;;;;;16.43;8.93;;;;;;;;;;5040862;28;20476;-79
2023/07/25 04:29:39;;;;;;;8.90;6.30;;;;;;;;;;5038771;28;20486;-80
2023/07/25 04:32:05;;;;;;;13.20;7.70;;;;;;;;;;5040479;28;20476;-80
2023/07/25 04:34:33;;;;;;;16.30;8.13;;;;;;;;;;5041277;28;20434;-79
2023/07/25 04:36:59;;;;;;;11.03;7.47;;;;;;;;;;5039481;28;20476;-79
2023/07/25 04:39:26;;;;;;;15.20;7.00;;;;;;;;;;5041688;28;20490;-80
2023/07/25 04:41:52;;;;;;;12.80;6.77;;;;;;;;;;5039792;28;20452;-80
2023/07/25 04:44:19;;;;;;;11.27;7.20;;;;;;;;;;5040747;28;20469;-80
2023/07/25 04:46:46;;;;;;;15.93;6.77;;;;;;;;;;5041391;28;20475;-79
2023/07/25 04:49:14;;;;;;;10.40;6.87;;;;;;;;;;5040974;28;20462;-79
2023/07/25 04:51:41;;;;;;;14.70;8.10;;;;;;;;;;5039267;28;20504;-79
2023/07/25 04:54:08;;;;;;;12.30;6.77;;;;;;;;;;5041571;28;20460;-79
2023/07/25 04:56:34;;;;;;;9.30;8.40;;;;;;;;;;5040670;28;20479;-79
2023/07/25 04:59:00;;;;;;;12.63;7.50;;;;;;;;;;5039671;28;20981;-79
2023/07/25 05:01:30;;;;;;;16.00;7.47;;;;;;;;;;5040692;28;20463;-79
2023/07/25 05:03:57;;;;;;;8.70;6.53;;;;;;;;;;5041384;28;20467;-79
2023/07/25 05:06:23;;;;;;;12.20;6.80;;;;;;;;;;5040375;28;20454;-79
2023/07/25 05:08:51;;;;;;;13.47;6.67;;;;;;;;;;5040610;28;20476;-79
2023/07/25 05:11:17;;;;;;;10.60;7.20;;;;;;;;;;5040313;28;20447;-79
2023/07/25 05:13:43;;;;;;;11.00;6.90;;;;;;;;;;5041090;28;20459;-79
2023/07/25 05:16:10;;;;;;;9.63;7.30;;;;;;;;;;5042114;28;20999;-79
2023/07/25 05:18:36;;;;;;;15.33;8.60;;;;;;;;;;5041846;28;20860;-80
2023/07/25 05:21:03;;;;;;;11.37;6.90;;;;;;;;;;5042563;28;20446;-79
2023/07/25 05:23:29;;;;;;;11.97;6.60;;;;;;;;;;5041963;28;20810;-79
2023/07/25 05:25:57;;;;;;;11.77;7.07;;;;;;;;;;5044942;28;20472;-79
2023/07/25 05:28:23;;;;;;;10.83;6.13;;;;;;;;;;5044919;28;21005;-79
2023/07/25 05:30:49;;;;;;;13.47;7.33;;;;;;;;;;5043524;28;20484;-80
2023/07/25 05:33:15;;;;;;;16.77;7.50;;;;;;;;;;5043568;28;20459;-80
2023/07/25 05:35:42;;;;;;;12.80;7.00;;;;;;;;;;5043460;28;20449;-79
2023/07/25 05:38:08;;;;;;;12.17;6.57;;;;;;;;;;5045258;28;20550;-80
2023/07/25 05:40:34;;;;;;;6.67;5.93;;;;;;;;;;5045526;28;20463;-79
2023/07/25 05:43:02;;;;;;;11.17;6.53;;;;;;;;;;5046280;28;20456;-79
2023/07/25 05:45:29;;;;;;;13.53;6.60;;;;;;;;;;5044428;28;20509;-79
2023/07/25 05:47:55;;;;;;;7.47;6.50;;;;;;;;;;5044697;28;20467;-80
2023/07/25 05:50:21;;;;;;;13.30;6.20;;;;;;;;;;5043442;28;20850;-80
2023/07/25 05:52:48;;;;;;;10.43;6.40;;;;;;;;;;5042095;28;20485;-80
2023/07/25 05:55:15;;;;;;;13.87;6.50;;;;;;;;;;5043023;28;20418;-81
2023/07/25 05:57:42;;;;;;;11.60;6.53;;;;;;;;;;5043851;28;21010;-80
2023/07/25 06:00:10;;;;;;;11.77;6.07;;;;;;;;;;5043723;28;20415;-80
2023/07/25 06:02:37;;;;;;;9.33;5.93;;;;;;;;;;5042870;28;20460;-80
2023/07/25 06:05:03;;;;;;;15.83;7.33;;;;;;;;;;5040936;28;20463;-80
2023/07/25 06:07:30;;;;;;;12.30;6.97;;;;;;;;;;5043278;28;20447;-80
2023/07/25 06:09:57;;;;;;;11.40;6.50;;;;;;;;;;5060115;28;20530;-80
2023/07/25 06:12:24;;;;;;;8.87;5.50;;;;;;;;;;5043456;28;20459;-80
2023/07/25 06:14:51;;;;;;;11.60;6.50;;;;;;;;;;5044163;28;20414;-79
2023/07/25 06:17:19;;;;;;;9.90;6.10;;;;;;;;;;5044469;28;20480;-79
2023/07/25 06:19:45;;;;;;;16.07;6.20;;;;;;;;;;5046080;28;20449;-80
2023/07/25 06:22:11;;;;;;;10.67;6.50;;;;;;;;;;5043662;28;20439;-80
2023/07/25 06:24:38;;;;;;;11.07;5.83;;;;;;;;;;5044310;28;20448;-79
2023/07/25 06:27:04;;;;;;;10.30;6.43;;;;;;;;;;5044485;28;20495;-79
2023/07/25 06:29:31;;;;;;;10.83;6.20;;;;;;;;;;5044338;28;20491;-79
2023/07/25 06:31:58;;;;;;;11.37;6.77;;;;;;;;;;5044454;28;20470;-79
2023/07/25 06:34:25;;;;;;;16.13;6.73;;;;;;;;;;5044316;28;20459;-80
2023/07/25 06:36:54;;;;;;;7.70;6.13;;;;;;;;;;5043012;28;20438;-80
2023/07/25 06:39:20;;;;;;;14.30;6.67;;;;;;;;;;5044815;28;20463;-79
2023/07/25 06:41:46;;;;;;;11.80;5.40;;;;;;;;;;5043935;28;20461;-80
2023/07/25 06:44:13;;;;;;;10.47;6.03;;;;;;;;;;5044154;28;20958;-80
2023/07/25 06:46:39;;;;;;;9.83;6.13;;;;;;;;;;5043735;28;20475;-80
2023/07/25 06:49:05;;;;;;;11.10;6.23;;;;;;;;;;5043223;28;20471;-80
2023/07/25 06:51:33;;;;;;;13.63;5.97;;;;;;;;;;5043105;28;20473;-80
2023/07/25 06:53:59;;;;;;;11.80;5.60;;;;;;;;;;5042391;28;20934;-80
2023/07/25 06:56:26;;;;;;;10.07;6.20;;;;;;;;;;5043401;28;20451;-80
2023/07/25 06:58:52;;;;;;;15.90;6.50;;;;;;;;;;5044264;28;20468;-79
2023/07/25 07:01:18;;;;;;;7.63;5.67;;;;;;;;;;5042296;28;20467;-79
2023/07/25 07:03:45;;;;;;;14.50;6.47;;;;;;;;;;5041863;28;20463;-80
2023/07/25 07:06:11;;;;;;;10.30;6.10;;;;;;;;;;5043745;28;20487;-80
2023/07/25 07:08:40;;;;;;;9.30;5.50;;;;;;;;;;5043500;28;20980;-79
2023/07/25 07:11:07;;;;;;;11.43;5.60;;;;;;;;;;5041848;28;20484;-80
2023/07/25 07:13:33;;;;;;;8.43;5.03;;;;;;;;;;5042794;28;21113;-80
2023/07/25 07:15:59;;;;;;;7.10;4.97;;;;;;;;;;5042266;28;20472;-80
2023/07/25 07:18:27;;;;;;;10.57;5.90;;;;;;;;;;5058705;28;20830;-80
2023/07/25 07:20:53;;;;;;;9.03;4.63;;;;;;;;;;5042406;28;20475;-79
2023/07/25 07:23:20;;;;;;;8.73;4.50;;;;;;;;;;5042143;28;20514;-80
2023/07/25 07:25:48;;;;;;;11.13;5.10;;;;;;;;;;5040783;28;20464;-80
2023/07/25 07:28:15;;;;;;;10.00;5.00;;;;;;;;;;5042641;28;20514;-79
2023/07/25 07:30:42;;;;;;;8.70;4.23;;;;;;;;;;5042629;28;20469;-79
2023/07/25 07:33:08;;;;;;;9.40;4.30;;;;;;;;;;5043488;28;20426;-79
2023/07/25 07:35:34;;;;;;;6.60;3.13;;;;;;;;;;5039775;28;20499;-80
2023/07/25 07:38:01;;;;;;;11.20;4.17;;;;;;;;;;5043384;28;20464;-80
2023/07/25 07:40:28;;;;;;;7.77;4.97;;;;;;;;;;5043000;28;20466;-79
2023/07/25 07:42:56;;;;;;;4.97;2.83;;;;;;;;;;5030251;28;20456;-79
2023/07/25 07:45:23;;;;;;;4.33;3.10;;;;;;;;;;5039902;28;20452;-80
2023/07/25 07:47:50;;;;;;;6.17;3.37;;;;;;;;;;5043236;28;20464;-79
2023/07/25 07:50:16;;;;;;;3.23;2.90;;;;;;;;;;5042559;28;20458;-80
2023/07/25 07:52:43;;;;;;;5.50;2.77;;;;;;;;;;5043969;28;20447;-79
2023/07/25 07:55:10;;;;;;;5.90;2.70;;;;;;;;;;5043264;28;20487;-79
2023/07/25 07:57:38;;;;;;;5.33;2.63;;;;;;;;;;5042399;28;21271;-80
2023/07/25 08:00:07;;;;;;;3.23;2.70;;;;;;;;;;5043246;28;20972;-79
2023/07/25 08:02:33;;;;;;;2.90;2.23;;;;;;;;;;5040504;28;21389;-79
2023/07/25 08:04:59;;;;;;;3.30;2.90;;;;;;;;;;5041707;28;20455;-79
2023/07/25 08:07:26;;;;;;;5.20;3.00;;;;;;;;;;5041566;28;20471;-80
2023/07/25 08:09:53;;;;;;;3.67;2.47;;;;;;;;;;5043682;28;20776;-79
2023/07/25 08:12:20;;;;;;;6.73;3.23;;;;;;;;;;5038583;28;20479;-79
2023/07/25 08:14:46;;;;;;;7.73;2.80;;;;;;;;;;5042289;28;20481;-80
2023/07/25 08:17:14;;;;;;;3.90;2.93;;;;;;;;;;5041063;28;20463;-79
2023/07/25 08:19:40;;;;;;;2.47;2.27;;;;;;;;;;5043202;28;21035;-79
2023/07/25 08:22:09;;;;;;;7.40;3.50;;;;;;;;;;5041556;28;21002;-80
2023/07/25 08:24:35;;;;;;;4.03;2.60;;;;;;;;;;5040770;28;20445;-79
2023/07/25 08:27:02;;;;;;;8.03;2.87;;;;;;;;;;5041413;28;20464;-80
2023/07/25 08:29:28;;;;;;;7.43;2.20;;;;;;;;;;5041194;28;20476;-80
2023/07/25 08:31:54;;;;;;;3.83;2.40;;;;;;;;;;5039942;28;20473;-80
2023/07/25 08:34:22;;;;;;;4.30;2.27;;;;;;;;;;5042037;28;20440;-80
2023/07/25 08:36:49;;;;;;;3.97;2.43;;;;;;;;;;5041361;28;20480;-80
2023/07/25 08:39:17;;;;;;;10.20;2.47;;;;;;;;;;5041293;28;21027;-80
2023/07/25 08:41:45;;;;;;;4.77;3.37;;;;;;;;;;5039721;28;21031;-79
2023/07/25 08:44:12;;;;;;;8.33;3.27;;;;;;;;;;5041238;28;20465;-79
2023/07/25 08:46:39;;;;;;;4.97;2.63;;;;;;;;;;5040200;28;20467;-79
2023/07/25 08:49:07;;;;;;;7.63;3.00;;;;;;;;;;5041522;28;21045;-79
2023/07/25 08:51:36;;;;;;;4.20;2.40;;;;;;;;;;5039852;28;20475;-82
2023/07/25 08:54:03;;;;;;;4.20;2.20;;;;;;;;;;5040422;28;20465;-82
2023/07/25 08:56:31;;;;;;;3.97;1.90;;;;;;;;;;5038921;28;20990;-82
2023/07/25 08:58:58;;;;;;;4.80;2.10;;;;;;;;;;5041160;28;20484;-82
2023/07/25 09:01:25;;;;;;;3.70;2.20;;;;;;;;;;5041792;28;20488;-82
2023/07/25 09:03:52;;;;;;;5.00;2.50;;;;;;;;;;5041912;28;20472;-82
2023/07/25 09:06:18;;;;;;;3.60;2.40;;;;;;;;;;5039153;28;20472;-82
2023/07/25 09:08:46;;;;;;;6.53;2.53;;;;;;;;;;5040627;28;21050;-79
2023/07/25 09:11:14;;;;;;;9.67;2.83;;;;;;;;;;5041298;28;20480;-80
2023/07/25 09:13:40;;;;;;;11.07;2.80;;;;;;;;;;5041530;28;20464;-79
2023/07/25 09:16:07;;;;;;;5.73;2.37;;;;;;;;;;5040921;28;20477;-80
2023/07/25 09:18:33;;;;;;;3.90;2.40;;;;;;;;;;5038880;28;20499;-80
2023/07/25 09:21:00;;;;;;;4.20;2.33;;;;;;;;;;5042248;28;20464;-80
2023/07/25 09:23:27;;;;;;;3.27;2.23;;;;;;;;;;5041111;28;20468;-80
2023/07/25 09:26:05;;;;;;;6.50;2.70;;;;;;;;;;5040466;28;20479;-80
2023/07/25 09:28:31;;;;;;;4.40;2.70;;;;;;;;;;5042221;28;20479;-79
2023/07/25 09:30:58;;;;;;;5.20;3.00;;;;;;;;;;5040718;28;20460;-80
2023/07/25 09:33:26;;;;;;;2.40;2.10;;;;;;;;;;5040300;28;20525;-80
2023/07/25 09:35:53;;;;;;;6.67;2.03;;;;;;;;;;5042575;28;21021;-80
2023/07/25 09:38:19;;;;;;;9.03;3.13;;;;;;;;;;5038291;28;20471;-80
2023/07/25 09:40:46;;;;;;;7.00;3.50;;;;;;;;;;5038757;28;20997;-80
2023/07/25 09:43:21;;;;;;;8.00;2.83;;;;;;;;;;5040044;28;20969;-80
2023/07/25 09:45:47;;;;;;;9.23;2.80;;;;;;;;;;5040264;28;20464;-80
2023/07/25 09:48:15;;;;;;;7.57;2.70;;;;;;;;;;5039290;28;20475;-80
2023/07/25 09:50:44;;;;;;;5.67;2.83;;;;;;;;;;5039129;28;20472;-80
2023/07/25 09:53:10;;;;;;;12.30;2.80;;;;;;;;;;5041670;28;20448;-80
2023/07/25 09:55:37;;;;;;;5.73;2.97;;;;;;;;;;5040714;28;20463;-80
2023/07/25 09:58:03;;;;;;;8.23;3.47;;;;;;;;;;5040825;28;20495;-80
2023/07/25 10:00:31;;;;;;;10.10;3.07;;;;;;;;;;5040376;28;20468;-81
2023/07/25 10:02:58;;;;;;;6.53;1.80;;;;;;;;;;5040443;28;20935;-80
2023/07/25 10:05:24;;;;;;;5.40;1.80;;;;;;;;;;5040145;28;20457;-80
2023/07/25 10:07:52;;;;;;;3.30;1.80;;;;;;;;;;5041684;28;20962;-80
2023/07/25 10:10:18;;;;;;;2.83;2.03;;;;;;;;;;5043649;28;20472;-80
2023/07/25 10:12:45;;;;;;;11.57;3.10;;;;;;;;;;5044703;28;20560;-79
2023/07/25 10:15:12;;;;;;;9.33;2.20;;;;;;;;;;5043313;28;20456;-80
2023/07/25 10:17:40;;;;;;;6.07;3.13;;;;;;;;;;5043587;28;20468;-79
2023/07/25 10:20:07;;;;;;;9.63;4.00;;;;;;;;;;5044121;28;20459;-79
2023/07/25 10:22:34;;;;;;;5.00;2.77;;;;;;;;;;5046682;28;20525;-80
2023/07/25 10:25:01;;;;;;;4.10;2.33;;;;;;;;;;5044032;28;20449;-79
2023/07/25 10:27:27;;;;;;;7.63;2.83;;;;;;;;;;5044320;28;20468;-80
2023/07/25 10:29:53;;;;;;;5.40;3.07;;;;;;;;;;5042983;28;20463;-79
2023/07/25 10:32:22;;;;;;;6.17;2.73;;;;;;;;;;5045104;28;20483;-79
2023/07/25 10:34:51;;;;;;;4.57;3.23;;;;;;;;;;5041965;28;20577;-79
2023/07/25 10:37:21;;;;;;;7.60;2.90;;;;;;;;;;5044368;28;20460;-79
2023/07/25 10:39:47;;;;;;;7.40;2.83;;;;;;;;;;5044851;28;20494;-80
2023/07/25 10:42:15;;;;;;;8.50;3.43;;;;;;;;;;5044034;28;20507;-79
2023/07/25 10:44:41;;;;;;;6.53;3.03;;;;;;;;;;5043531;28;20989;-80
2023/07/25 10:47:22;;;;;;;4.53;2.40;;;;;;;;;;5044241;28;20467;-80
2023/07/25 10:49:56;;;;;;;5.43;3.40;;;;;;;;;;5043594;28;20451;-80
2023/07/25 10:52:37;;;;;;;6.93;2.00;;;;;;;;;;5043610;28;20475;-80
2023/07/25 10:55:04;;;;;;;3.90;2.83;;;;;;;;;;5044026;28;20825;-80
2023/07/25 10:57:30;;;;;;;5.87;2.43;;;;;;;;;;5042204;28;20583;-80
2023/07/25 10:59:57;;;;;;;6.90;3.10;;;;;;;;;;5042852;28;20468;-80
2023/07/25 11:02:33;;;;;;;6.00;2.50;;;;;;;;;;5043212;28;20480;-80
2023/07/25 11:05:21;;;;;;;6.67;2.60;;;;;;;;;;5043653;28;21031;-80
2023/07/25 11:07:51;;;;;;;7.70;2.80;;;;;;;;;;5043046;28;20484;-79
2023/07/25 11:10:22;;;;;;;5.60;2.17;;;;;;;;;;5040265;28;20457;-80
2023/07/25 11:12:50;;;;;;;6.30;2.13;;;;;;;;;;5042948;28;20484;-80
2023/07/25 11:15:16;;;;;;;4.23;2.33;;;;;;;;;;5040185;28;20459;-80
2023/07/25 11:17:43;;;;;;;7.37;2.80;;;;;;;;;;5043439;28;20509;-80
2023/07/25 11:20:13;;;;;;;7.97;2.63;;;;;;;;;;5042056;28;20452;-80
2023/07/25 11:22:41;;;;;;;7.03;2.23;;;;;;;;;;5042126;28;20453;-80
2023/07/25 11:25:08;;;;;;;5.50;1.93;;;;;;;;;;5043253;28;20475;-80
2023/07/25 11:27:34;;;;;;;9.60;2.17;;;;;;;;;;5042997;28;20530;-81
2023/07/25 11:30:09;;;;;;;5.67;2.27;;;;;;;;;;5043465;28;20449;-80
2023/07/25 11:32:35;;;;;;;3.80;2.40;;;;;;;;;;5041513;28;20472;-80
2023/07/25 11:35:01;;;;;;;8.87;2.77;;;;;;;;;;5043546;28;20468;-80
2023/07/25 11:37:28;;;;;;;6.53;3.97;;;;;;;;;;5042469;28;20471;-80
2023/07/25 11:39:55;;;;;;;5.23;1.70;;;;;;;;;;5042221;28;20957;-80
2023/07/25 11:42:22;;;;;;;8.97;1.90;;;;;;;;;;5043151;28;20467;-80
2023/07/25 11:44:50;;;;;;;6.23;2.13;;;;;;;;;;5042232;28;20456;-80
2023/07/25 11:47:16;;;;;;;5.33;1.87;;;;;;;;;;5040171;28;20467;-80
2023/07/25 11:49:43;;;;;;;5.83;1.80;;;;;;;;;;5042498;28;21063;-80
2023/07/25 11:52:10;;;;;;;5.77;1.87;;;;;;;;;;5042335;28;20495;-80
2023/07/25 11:54:37;;;;;;;4.57;1.97;;;;;;;;;;5041386;28;20482;-80
2023/07/25 11:57:06;;;;;;;2.40;1.73;;;;;;;;;;5043112;28;20468;-80
2023/07/25 11:59:39;;;;;;;4.13;2.10;;;;;;;;;;5042157;28;20504;-80
2023/07/25 12:02:05;;;;;;;6.90;1.80;;;;;;;;;;5042345;28;20461;-80
2023/07/25 12:04:32;;;;;;;3.60;1.80;;;;;;;;;;5041379;28;20444;-80
2023/07/25 12:06:58;;;;;;;3.47;1.67;;;;;;;;;;5043490;28;20472;-80
2023/07/25 12:09:28;;;;;;;6.87;2.00;;;;;;;;;;5041745;28;20481;-81
2023/07/25 12:11:54;;;;;;;4.03;1.27;;;;;;;;;;5042292;28;20476;-80
2023/07/25 12:14:22;;;;;;;6.17;1.90;;;;;;;;;;5042580;28;20444;-80
2023/07/25 12:16:50;;;;;;;2.10;1.60;;;;;;;;;;5040772;28;21029;-80
2023/07/25 12:19:16;;;;;;;5.50;1.60;;;;;;;;;;5041939;28;20467;-80
2023/07/25 12:21:44;;;;;;;8.73;2.33;;;;;;;;;;5041731;28;20461;-80
2023/07/25 12:24:11;;;;;;;3.70;1.40;;;;;;;;;;5041972;28;21014;-80
2023/07/25 12:26:44;;;;;;;4.60;1.57;;;;;;;;;;5040035;28;20479;-81
2023/07/25 12:29:13;;;;;;;4.43;1.60;;;;;;;;;;5041248;28;20467;-80
2023/07/25 12:31:40;;;;;;;1.27;1.17;;;;;;;;;;5039585;28;20482;-81
2023/07/25 12:34:07;;;;;;;4.67;1.50;;;;;;;;;;5040994;28;20448;-80
2023/07/25 12:36:33;;;;;;;5.23;1.40;;;;;;;;;;5041962;28;20486;-80
2023/07/25 12:38:59;;;;;;;2.57;1.43;;;;;;;;;;5040599;28;20456;-80
2023/07/25 12:41:26;;;;;;;3.23;1.40;;;;;;;;;;5039626;28;20465;-80
2023/07/25 12:43:52;;;;;;;5.53;1.73;;;;;;;;;;5041178;28;20458;-80
2023/07/25 12:46:18;;;;;;;6.43;1.90;;;;;;;;;;5041832;28;20475;-80
2023/07/25 12:48:46;;;;;;;4.33;1.60;;;;;;;;;;5040688;28;20464;-80
2023/07/25 12:51:12;;;;;;;3.43;1.80;;;;;;;;;;5041458;28;21045;-80
2023/07/25 12:53:39;;;;;;;3.13;1.70;;;;;;;;;;5040887;28;20468;-80
2023/07/25 12:56:05;;;;;;;4.47;1.90;;;;;;;;;;5041383;28;20467;-80
2023/07/25 12:58:32;;;;;;;6.97;1.47;;;;;;;;;;5040771;28;20495;-80
2023/07/25 13:00:58;;;;;;;2.83;2.17;;;;;;;;;;5042109;28;21023;-80
2023/07/25 13:03:25;;;;;;;8.07;1.47;;;;;;;;;;5040333;28;20466;-80
2023/07/25 13:05:53;;;;;;;5.50;1.83;;;;;;;;;;5041419;28;20469;-80
2023/07/25 13:08:19;;;;;;;5.57;1.80;;;;;;;;;;5041851;28;20472;-80
2023/07/25 13:10:46;;;;;;;7.20;2.03;;;;;;;;;;5041469;28;20508;-80
2023/07/25 13:13:13;;;;;;;6.23;1.80;;;;;;;;;;5039284;28;20502;-80
2023/07/25 13:15:41;;;;;;;5.43;1.60;;;;;;;;;;5041808;28;20460;-80
2023/07/25 13:18:07;;;;;;;2.67;1.30;;;;;;;;;;5042332;28;20491;-80
2023/07/25 13:20:37;;;;;;;11.10;1.93;;;;;;;;;;5041516;28;20478;-80
2023/07/25 13:23:09;;;;;;;7.17;1.77;;;;;;;;;;5041251;28;20440;-80
2023/07/25 13:25:36;;;;;;;7.27;1.60;;;;;;;;;;5041175;28;20525;-80
2023/07/25 13:28:02;;;;;;;5.50;1.80;;;;;;;;;;5041149;28;20486;-80
2023/07/25 13:30:29;;;;;;;4.40;1.40;;;;;;;;;;5040741;28;20502;-80
2023/07/25 13:32:55;;;;;;;3.13;1.70;;;;;;;;;;5040836;28;20484;-80
2023/07/25 13:35:21;;;;;;;4.57;1.50;;;;;;;;;;5039779;28;20440;-80
2023/07/25 13:37:48;;;;;;;5.20;1.40;;;;;;;;;;5041182;28;20479;-80
2023/07/25 13:40:16;;;;;;;5.03;1.90;;;;;;;;;;5039721;28;20857;-80
2023/07/25 13:42:43;;;;;;;3.50;1.60;;;;;;;;;;5042630;28;20461;-80
2023/07/25 13:45:09;;;;;;;2.27;1.30;;;;;;;;;;5044323;28;20443;-80
2023/07/25 13:47:36;;;;;;;1.83;1.23;;;;;;;;;;5044803;28;20835;-80
2023/07/25 13:50:02;;;;;;;4.50;1.93;;;;;;;;;;5045670;28;20437;-80
2023/07/25 13:52:29;;;;;;;4.50;1.00;;;;;;;;;;5045649;28;20486;-80
2023/07/25 13:54:55;;;;;;;3.07;1.73;;;;;;;;;;5043943;28;20460;-80
2023/07/25 13:57:23;;;;;;;3.50;1.37;;;;;;;;;;5044231;28;20864;-80
2023/07/25 13:59:50;;;;;;;4.67;1.60;;;;;;;;;;5045109;28;20471;-81
2023/07/25 14:02:16;;;;;;;5.97;2.13;;;;;;;;;;5044677;28;20487;-80
2023/07/25 14:04:43;;;;;;;3.83;1.30;;;;;;;;;;5045199;28;20453;-80
2023/07/25 14:07:10;;;;;;;3.27;1.40;;;;;;;;;;5045011;28;20521;-80
2023/07/25 14:09:36;;;;;;;5.60;1.73;;;;;;;;;;5044002;28;20486;-80
2023/07/25 14:12:02;;;;;;;3.67;1.53;;;;;;;;;;5044951;28;21001;-80
2023/07/25 14:14:30;;;;;;;2.33;1.50;;;;;;;;;;5043946;28;20466;-80
2023/07/25 14:16:56;;;;;;;6.73;1.87;;;;;;;;;;5044005;28;20480;-80
2023/07/25 14:19:23;;;;;;;5.10;2.53;;;;;;;;;;5044882;28;20465;-80
2023/07/25 14:21:51;;;;;;;3.63;1.43;;;;;;;;;;5044741;28;20472;-80
2023/07/25 14:24:17;;;;;;;3.83;1.23;;;;;;;;;;5044761;28;20443;-80
2023/07/25 14:26:43;;;;;;;8.70;1.30;;;;;;;;;;5044672;28;20474;-81
2023/07/25 14:29:10;;;;;;;2.00;1.17;;;;;;;;;;5044903;28;20464;-81
2023/07/25 14:31:38;;;;;;;3.40;1.43;;;;;;;;;;5043885;28;20841;-80
2023/07/25 14:34:04;;;;;;;4.90;1.17;;;;;;;;;;5043964;28;20456;-80
2023/07/25 14:36:30;;;;;;;2.30;1.00;;;;;;;;;;5041223;28;20479;-81